This is the latest recevied weather packets stored in our database for station/object EA3ABN-1. If no packets are shown the sender has not sent any weather packets the latest 10 day(s).
| Time | Temp. | Humidity | Pressure | Rain* | Wind** | Luminosity | Snow |
|---|---|---|---|---|---|---|---|
| 1777043373 | 30° C | 32% | 1014.4 hPa | - | - | - | - |
| 1777041873 | 29.44° C | 32% | 1014.9 hPa | - | - | - | - |
| 1777039173 | 28.33° C | 32% | 1015.3 hPa | - | - | - | - |
| 1777037974 | 28.33° C | 32% | 1015.4 hPa | - | - | - | - |
| 1777037374 | 27.78° C | 32% | 1015.6 hPa | - | - | - | - |
| 1777036173 | 27.78° C | 32% | 1015.8 hPa | - | - | - | - |
| 1777033773 | 27.78° C | 32% | 1015.6 hPa | - | - | - | - |
| 1777032873 | 27.78° C | 32% | 1015.5 hPa | - | - | - | - |
| 1777030773 | 28.33° C | 32% | 1015.4 hPa | - | - | - | - |
| 1777030173 | 28.33° C | 32% | 1015.6 hPa | - | - | - | - |
| 1777027773 | 28.89° C | 32% | 1015.7 hPa | - | - | - | - |
| 1777027473 | 28.89° C | 32% | 1015.6 hPa | - | - | - | - |
| 1777026589 | 28.89° C | 33% | 1015.6 hPa | - | - | - | - |
| 1777019373 | 26.11° C | 33% | 1016.1 hPa | - | - | - | - |
| 1777019104 | 25.56° C | 33% | 1016 hPa | - | - | - | - |
| 1777018472 | 25° C | 33% | 1016.2 hPa | - | - | - | - |
| 1777017288 | 23.33° C | 34% | 1016.6 hPa | - | - | - | - |
| 1777016972 | 23.33° C | 34% | 1016.6 hPa | - | - | - | - |
| 1777014904 | 21.11° C | 34% | 1017.1 hPa | - | - | - | - |
| 1777014572 | 20.56° C | 33% | 1017.2 hPa | - | - | - | - |
| 1777013972 | 20° C | 33% | 1017.3 hPa | - | - | - | - |
| 1777012173 | 17.78° C | 33% | 1017.9 hPa | - | - | - | - |
| 1777011872 | 17.78° C | 33% | 1018 hPa | - | - | - | - |
| 1777009488 | 17.22° C | 31% | 1017.6 hPa | - | - | - | - |
| 1777008888 | 17.22° C | 31% | 1017.5 hPa | - | - | - | - |
* Rain since midnight (hover to see other rain measurements)
** Current wind speed in m/s (hover to see current wind gust speed)